createdAt,value
2022-12-31T00:00:08.936Z,14.52
2022-12-31T00:02:36.346Z,14.60
2022-12-31T00:05:04.562Z,14.80
2022-12-31T00:09:58.123Z,19.75
2022-12-31T00:12:25.652Z,15.30
2022-12-31T00:14:52.541Z,16.80
2022-12-31T00:17:19.436Z,16.25
2022-12-31T00:19:46.323Z,15.05
2022-12-31T00:22:13.173Z,13.50
2022-12-31T00:24:40.160Z,14.02
2022-12-31T00:27:06.993Z,13.50
2022-12-31T00:29:33.920Z,17.35
2022-12-31T00:32:00.821Z,12.45
2022-12-31T00:34:27.748Z,11.98
2022-12-31T00:36:54.642Z,17.50
2022-12-31T00:39:21.544Z,15.90
2022-12-31T00:41:48.370Z,12.82
2022-12-31T00:44:15.409Z,13.75
2022-12-31T00:49:08.070Z,14.48
2022-12-31T00:51:35.063Z,12.93
2022-12-31T00:54:02.234Z,15.20
2022-12-31T00:56:30.825Z,14.43
2022-12-31T00:58:59.198Z,13.48
2022-12-31T01:01:29.472Z,13.57
2022-12-31T01:04:00.608Z,13.63
2022-12-31T01:06:27.533Z,14.63
2022-12-31T01:08:55.782Z,14.63
2022-12-31T01:11:24.522Z,17.45
2022-12-31T01:14:07.456Z,26.60
2022-12-31T01:16:39.201Z,19.17
2022-12-31T01:19:09.224Z,18.23
2022-12-31T01:24:04.236Z,14.75
2022-12-31T01:26:31.682Z,16.70
2022-12-31T01:28:58.613Z,16.83
2022-12-31T01:31:25.825Z,15.73
2022-12-31T01:33:53.237Z,18.33
2022-12-31T01:36:25.965Z,16.05
2022-12-31T01:38:55.002Z,15.52
2022-12-31T01:41:28.628Z,14.88
2022-12-31T01:43:56.756Z,18.65
2022-12-31T01:46:37.503Z,16.75
2022-12-31T01:49:30.453Z,15.93
2022-12-31T01:52:03.122Z,16.17
2022-12-31T01:54:35.157Z,14.50
2022-12-31T01:57:02.390Z,13.07
2022-12-31T01:59:29.989Z,19.52
2022-12-31T02:01:57.332Z,12.63
2022-12-31T02:04:26.469Z,14.75
2022-12-31T02:07:08.027Z,13.30
2022-12-31T02:09:38.401Z,15.65
2022-12-31T02:12:07.461Z,13.82
2022-12-31T02:14:39.868Z,16.38
2022-12-31T02:17:31.824Z,16.83
2022-12-31T02:20:21.893Z,15.07
2022-12-31T02:26:02.477Z,14.65
2022-12-31T02:28:38.365Z,16.55
2022-12-31T02:31:22.861Z,16.92
2022-12-31T02:33:58.315Z,15.80
2022-12-31T02:36:29.949Z,15.75
2022-12-31T02:38:58.745Z,17.40
2022-12-31T02:41:44.095Z,15.63
2022-12-31T02:44:29.501Z,13.85
2022-12-31T02:47:08.555Z,13.93
2022-12-31T02:49:53.537Z,14.18
2022-12-31T02:52:41.661Z,13.55
2022-12-31T02:55:14.503Z,13.68
2022-12-31T02:57:44.217Z,18.95
2022-12-31T03:00:33.686Z,12.50
2022-12-31T03:03:03.284Z,11.80
2022-12-31T03:05:34.306Z,13.45
2022-12-31T03:08:01.154Z,14.32
2022-12-31T03:10:28.100Z,13.07
2022-12-31T03:12:55.014Z,13.07
2022-12-31T03:15:32.891Z,12.63
2022-12-31T03:18:01.818Z,12.85
2022-12-31T03:20:52.041Z,11.80
2022-12-31T03:23:35.686Z,14.40
2022-12-31T03:26:09.797Z,13.48
2022-12-31T03:28:38.497Z,14.23
2022-12-31T03:31:06.489Z,15.13
2022-12-31T03:33:35.923Z,19.52
2022-12-31T03:36:07.836Z,14.07
2022-12-31T03:38:34.763Z,12.98
2022-12-31T03:41:01.683Z,16.13
2022-12-31T03:43:28.560Z,13.60
2022-12-31T03:45:58.815Z,18.88
2022-12-31T03:48:26.335Z,13.68
2022-12-31T03:50:54.268Z,17.30
2022-12-31T03:53:21.095Z,14.05
2022-12-31T03:55:54.620Z,13.52
2022-12-31T03:58:22.334Z,14.52
2022-12-31T04:00:49.452Z,17.42
2022-12-31T04:03:16.550Z,15.85
2022-12-31T04:05:43.453Z,15.27
2022-12-31T04:08:10.322Z,16.85
2022-12-31T04:10:37.229Z,16.73
2022-12-31T04:13:04.944Z,13.38
2022-12-31T04:15:32.250Z,15.57
2022-12-31T04:17:59.233Z,16.15
2022-12-31T04:20:26.241Z,15.63
2022-12-31T04:22:53.297Z,14.93
2022-12-31T04:25:20.258Z,11.88
2022-12-31T04:27:47.953Z,13.38
2022-12-31T04:30:15.420Z,19.85
2022-12-31T04:32:42.976Z,14.35
2022-12-31T04:35:11.004Z,14.35
2022-12-31T04:37:38.154Z,14.80
2022-12-31T04:40:06.989Z,14.23
2022-12-31T04:42:35.271Z,11.33
2022-12-31T04:45:02.089Z,11.77
2022-12-31T04:47:29.019Z,12.00
2022-12-31T04:49:55.901Z,15.82
2022-12-31T04:52:23.148Z,11.02
2022-12-31T04:54:50.438Z,13.02
2022-12-31T04:57:17.472Z,12.38
2022-12-31T04:59:44.349Z,11.95
2022-12-31T05:02:11.376Z,12.27
2022-12-31T05:04:38.319Z,9.95
2022-12-31T05:07:07.688Z,13.80
2022-12-31T05:09:34.606Z,13.15
2022-12-31T05:12:01.509Z,10.52
2022-12-31T05:14:28.316Z,9.32
2022-12-31T05:16:55.431Z,11.80
2022-12-31T05:19:22.348Z,10.88
2022-12-31T05:22:09.364Z,12.95
2022-12-31T05:24:36.286Z,11.05
2022-12-31T05:27:03.405Z,10.90
2022-12-31T05:29:30.289Z,11.93
2022-12-31T05:31:57.146Z,15.00
2022-12-31T05:34:23.998Z,12.82
2022-12-31T05:36:50.876Z,15.55
2022-12-31T05:39:17.803Z,15.25
2022-12-31T05:41:44.620Z,19.98
2022-12-31T05:44:11.746Z,19.25
2022-12-31T05:46:38.548Z,28.50
2022-12-31T05:49:05.480Z,17.92
2022-12-31T05:51:32.578Z,19.92
2022-12-31T05:53:59.423Z,14.95
2022-12-31T05:56:26.299Z,14.70
2022-12-31T05:58:53.173Z,14.07
2022-12-31T06:01:20.186Z,14.20
2022-12-31T06:03:47.328Z,16.00
2022-12-31T06:06:14.470Z,15.60
2022-12-31T06:08:41.405Z,16.73
2022-12-31T06:11:08.430Z,17.73
2022-12-31T06:13:35.542Z,16.52
2022-12-31T06:16:07.601Z,17.27
2022-12-31T06:18:34.752Z,17.05
2022-12-31T06:21:03.507Z,15.35
2022-12-31T06:23:30.552Z,15.32
2022-12-31T06:25:57.694Z,14.05
2022-12-31T06:28:24.615Z,14.05
2022-12-31T06:30:51.533Z,12.95
2022-12-31T06:33:18.470Z,15.13
2022-12-31T06:35:45.279Z,14.02
2022-12-31T06:38:12.196Z,14.98
2022-12-31T06:40:39.161Z,18.00
2022-12-31T06:43:06.047Z,17.70
2022-12-31T06:45:32.837Z,15.93
2022-12-31T06:47:59.678Z,14.50
2022-12-31T06:50:26.506Z,14.48
2022-12-31T06:52:53.927Z,15.27
2022-12-31T06:55:21.295Z,13.30
2022-12-31T06:57:48.783Z,14.13
2022-12-31T07:00:16.266Z,13.10
2022-12-31T07:03:01.848Z,16.55
2022-12-31T07:05:34.048Z,16.60
2022-12-31T07:08:49.249Z,18.15
2022-12-31T07:11:28.166Z,13.20
2022-12-31T07:14:01.225Z,15.30
2022-12-31T07:16:34.178Z,20.88
2022-12-31T07:19:29.420Z,15.05
2022-12-31T07:21:59.138Z,13.77
2022-12-31T07:24:26.493Z,15.95
2022-12-31T07:27:08.811Z,14.85
2022-12-31T07:30:01.814Z,13.15
2022-12-31T07:32:43.477Z,13.93
2022-12-31T07:35:32.944Z,12.20
2022-12-31T07:38:04.793Z,14.95
2022-12-31T07:40:37.580Z,13.77
2022-12-31T07:43:25.853Z,14.27
2022-12-31T07:46:04.650Z,13.85
2022-12-31T07:48:31.755Z,16.23
2022-12-31T07:50:58.907Z,15.63
2022-12-31T07:53:27.030Z,12.32
2022-12-31T07:56:00.057Z,14.50
2022-12-31T07:58:45.990Z,12.77
2022-12-31T08:01:15.243Z,11.98
2022-12-31T08:03:44.628Z,17.60
2022-12-31T08:06:39.269Z,13.65
2022-12-31T08:09:11.941Z,13.88
2022-12-31T08:11:51.978Z,15.02
2022-12-31T08:16:46.115Z,15.13
2022-12-31T08:19:33.473Z,12.70
2022-12-31T08:22:15.414Z,13.10
2022-12-31T08:25:19.734Z,12.73
2022-12-31T08:28:03.486Z,12.80
2022-12-31T08:30:59.943Z,21.95
2022-12-31T08:33:45.498Z,16.52
2022-12-31T08:36:27.377Z,14.95
2022-12-31T08:39:02.996Z,16.80
2022-12-31T08:41:47.928Z,18.48
2022-12-31T08:44:56.483Z,13.60
2022-12-31T08:47:38.175Z,15.70
2022-12-31T08:50:06.395Z,11.45
2022-12-31T08:52:33.551Z,16.50
2022-12-31T08:55:00.730Z,12.77
2022-12-31T08:57:39.710Z,14.52
2022-12-31T09:00:18.161Z,11.93
2022-12-31T09:02:48.157Z,13.65
2022-12-31T09:05:26.212Z,24.90
2022-12-31T09:08:30.786Z,22.55
2022-12-31T09:11:07.080Z,22.17
2022-12-31T09:13:55.839Z,20.88
2022-12-31T09:16:40.348Z,17.55
2022-12-31T09:19:10.164Z,13.90
2022-12-31T09:21:38.292Z,16.67
2022-12-31T09:24:09.377Z,12.50
2022-12-31T09:26:57.497Z,12.15
2022-12-31T09:29:27.306Z,12.20
2022-12-31T09:32:12.278Z,13.48
2022-12-31T09:34:54.375Z,15.65
2022-12-31T09:37:52.879Z,18.25
2022-12-31T09:40:28.797Z,11.35
2022-12-31T09:43:10.700Z,11.13
2022-12-31T09:45:52.323Z,10.93
2022-12-31T09:48:28.340Z,13.23
2022-12-31T09:51:25.222Z,11.95
2022-12-31T09:54:13.763Z,20.13
2022-12-31T09:56:55.511Z,10.15
2022-12-31T09:59:58.262Z,13.23
2022-12-31T10:02:43.389Z,15.35
2022-12-31T10:05:22.543Z,11.68
2022-12-31T10:08:09.114Z,12.10
2022-12-31T10:11:06.865Z,14.90
2022-12-31T10:14:17.999Z,13.45
2022-12-31T10:17:09.334Z,12.68
2022-12-31T10:19:54.846Z,11.07
2022-12-31T10:22:55.773Z,11.55
2022-12-31T10:25:50.716Z,9.32
2022-12-31T10:28:48.925Z,9.65
2022-12-31T10:31:37.634Z,9.52
2022-12-31T10:34:13.329Z,8.98
2022-12-31T10:36:58.125Z,11.82
2022-12-31T10:40:02.419Z,9.95
2022-12-31T10:43:06.562Z,10.45
2022-12-31T10:46:01.662Z,13.25
2022-12-31T10:49:07.258Z,9.32
2022-12-31T10:51:53.992Z,9.52
2022-12-31T10:54:54.883Z,11.80
2022-12-31T10:57:27.600Z,10.32
2022-12-31T11:00:29.663Z,10.63
2022-12-31T11:03:14.934Z,10.35
2022-12-31T11:05:47.547Z,9.90
2022-12-31T11:08:30.864Z,9.75
2022-12-31T11:11:32.937Z,10.27
2022-12-31T11:14:33.623Z,11.85
2022-12-31T11:17:21.879Z,9.27
2022-12-31T11:20:15.350Z,8.90
2022-12-31T11:23:16.217Z,9.25
2022-12-31T11:25:54.883Z,10.27
2022-12-31T11:28:40.395Z,10.50
2022-12-31T11:31:44.722Z,12.45
2022-12-31T11:34:29.881Z,8.85
2022-12-31T11:37:33.819Z,10.63
2022-12-31T11:40:19.131Z,8.93
2022-12-31T11:43:30.952Z,9.73
2022-12-31T11:46:32.980Z,11.45
2022-12-31T11:49:09.026Z,11.48
2022-12-31T11:52:15.994Z,10.68
2022-12-31T11:54:51.223Z,9.80
2022-12-31T11:57:30.168Z,8.27
2022-12-31T12:00:00.459Z,10.57
2022-12-31T12:02:36.575Z,8.02
2022-12-31T12:05:10.662Z,11.65
2022-12-31T12:07:38.265Z,9.15
2022-12-31T12:10:36.931Z,10.15
2022-12-31T12:13:18.780Z,6.97
2022-12-31T12:15:50.217Z,7.00
2022-12-31T12:18:24.617Z,7.60
2022-12-31T12:20:51.803Z,8.25
2022-12-31T12:23:26.854Z,7.57
2022-12-31T12:25:53.740Z,6.88
2022-12-31T12:28:27.517Z,7.35
2022-12-31T12:31:05.230Z,6.93
2022-12-31T12:33:52.631Z,7.00
2022-12-31T12:36:21.387Z,8.88
2022-12-31T12:38:48.391Z,6.53
2022-12-31T12:41:25.501Z,7.55
2022-12-31T12:44:06.395Z,10.23
2022-12-31T12:46:53.292Z,7.45
2022-12-31T12:49:26.140Z,6.70
2022-12-31T12:52:30.358Z,6.55
2022-12-31T12:55:13.197Z,6.63
2022-12-31T12:58:12.901Z,7.18
2022-12-31T13:01:10.026Z,7.40
2022-12-31T13:04:33.605Z,7.32
2022-12-31T13:07:24.833Z,8.07
2022-12-31T13:10:03.506Z,7.20
2022-12-31T13:13:13.721Z,7.70
2022-12-31T13:15:46.772Z,7.30
2022-12-31T13:18:33.141Z,8.50
2022-12-31T13:21:37.184Z,7.97
2022-12-31T13:24:36.262Z,7.15
2022-12-31T13:27:11.924Z,7.65
2022-12-31T13:29:41.859Z,10.85
2022-12-31T13:34:44.268Z,7.57
2022-12-31T13:37:40.568Z,7.93
2022-12-31T13:40:21.258Z,7.68
2022-12-31T13:43:17.509Z,7.43
2022-12-31T13:45:46.356Z,6.93
2022-12-31T13:48:27.519Z,11.27
2022-12-31T13:51:18.998Z,6.75
2022-12-31T13:54:01.971Z,8.80
2022-12-31T13:56:34.516Z,6.88
2022-12-31T13:59:07.676Z,7.65
2022-12-31T14:01:38.238Z,6.53
2022-12-31T14:04:14.600Z,10.43
2022-12-31T14:07:02.892Z,7.30
2022-12-31T14:09:33.693Z,11.30
2022-12-31T14:12:15.451Z,8.23
2022-12-31T14:15:19.746Z,6.85
2022-12-31T14:17:46.558Z,7.75
2022-12-31T14:20:24.288Z,7.43
2022-12-31T14:22:59.634Z,7.55
2022-12-31T14:25:37.419Z,7.45
2022-12-31T14:28:06.952Z,7.60
2022-12-31T14:30:40.826Z,8.30
2022-12-31T14:33:48.989Z,7.95
2022-12-31T14:36:47.876Z,8.52
2022-12-31T14:39:35.789Z,9.90
2022-12-31T14:42:05.433Z,8.18
2022-12-31T14:44:48.435Z,9.70
2022-12-31T14:47:36.970Z,8.73
2022-12-31T14:50:17.493Z,8.63
2022-12-31T14:52:53.151Z,8.15
2022-12-31T14:55:25.109Z,8.52
2022-12-31T14:58:26.547Z,7.97
2022-12-31T15:00:51.281Z,9.38
2022-12-31T15:03:18.167Z,10.63
2022-12-31T15:05:54.204Z,10.63
2022-12-31T15:08:21.013Z,11.10
2022-12-31T15:11:03.161Z,13.88
2022-12-31T15:14:07.668Z,10.98
2022-12-31T15:17:13.073Z,14.23
2022-12-31T15:20:16.729Z,10.38
2022-12-31T15:22:45.500Z,11.20
2022-12-31T15:25:36.751Z,12.52
2022-12-31T15:28:24.550Z,14.55
2022-12-31T15:30:53.297Z,11.45
2022-12-31T15:33:32.702Z,11.48
2022-12-31T15:36:15.531Z,11.82
2022-12-31T15:38:43.106Z,11.90
2022-12-31T15:41:20.090Z,15.27
2022-12-31T15:43:54.719Z,14.48
2022-12-31T15:46:28.301Z,13.48
2022-12-31T15:49:06.741Z,11.38
2022-12-31T15:52:13.267Z,16.17
2022-12-31T15:54:44.783Z,15.20
2022-12-31T15:57:33.715Z,12.45
2022-12-31T16:00:05.236Z,12.00
2022-12-31T16:02:32.345Z,15.90
2022-12-31T16:04:59.441Z,14.70
2022-12-31T16:07:28.816Z,14.55
2022-12-31T16:09:59.774Z,17.50
2022-12-31T16:12:33.177Z,13.15
2022-12-31T16:15:02.462Z,16.50
2022-12-31T16:17:35.525Z,14.10
2022-12-31T16:20:23.536Z,15.73
2022-12-31T16:22:58.259Z,21.33
2022-12-31T16:25:31.190Z,17.38
2022-12-31T16:27:59.032Z,17.60
2022-12-31T16:30:35.911Z,17.33
2022-12-31T16:33:06.605Z,14.75
2022-12-31T16:35:36.698Z,20.30
2022-12-31T16:38:15.646Z,19.05
2022-12-31T16:40:46.613Z,19.60
2022-12-31T16:43:46.918Z,16.88
2022-12-31T16:46:32.141Z,15.45
2022-12-31T16:49:14.189Z,18.27
2022-12-31T16:51:41.988Z,16.02
2022-12-31T16:54:20.876Z,17.75
2022-12-31T16:56:48.041Z,19.13
2022-12-31T16:59:29.316Z,18.05
2022-12-31T17:02:03.832Z,21.73
2022-12-31T17:04:31.114Z,27.42
2022-12-31T17:07:31.863Z,20.17
2022-12-31T17:10:07.705Z,23.45
2022-12-31T17:13:00.945Z,21.65
2022-12-31T17:15:38.958Z,14.55
2022-12-31T17:18:06.997Z,14.10
2022-12-31T17:20:34.788Z,17.42
2022-12-31T17:23:06.173Z,21.50
2022-12-31T17:25:36.233Z,17.25
2022-12-31T17:28:05.460Z,16.77
2022-12-31T17:30:40.270Z,15.43
2022-12-31T17:33:22.176Z,21.52
2022-12-31T17:35:55.332Z,21.27
2022-12-31T17:38:22.283Z,18.45
2022-12-31T17:41:13.585Z,14.95
2022-12-31T17:43:41.388Z,14.50
2022-12-31T17:46:14.189Z,17.35
2022-12-31T17:48:41.867Z,16.70
2022-12-31T17:51:08.943Z,18.40
2022-12-31T17:53:36.006Z,15.65
2022-12-31T17:56:10.506Z,17.85
2022-12-31T17:58:37.460Z,15.63
2022-12-31T18:01:09.010Z,19.40
2022-12-31T18:03:36.573Z,18.85
2022-12-31T18:06:05.500Z,20.10
2022-12-31T18:08:32.462Z,20.20
2022-12-31T18:10:59.488Z,19.40
2022-12-31T18:13:27.638Z,21.80
2022-12-31T18:15:55.318Z,20.75
2022-12-31T18:18:25.927Z,21.33
2022-12-31T18:20:57.697Z,20.15
2022-12-31T18:23:48.802Z,22.33
2022-12-31T18:26:18.350Z,17.38
2022-12-31T18:28:45.875Z,18.77
2022-12-31T18:31:22.295Z,21.65
2022-12-31T18:33:51.097Z,23.63
2022-12-31T18:36:20.144Z,23.15
2022-12-31T18:38:47.313Z,24.80
2022-12-31T18:41:18.722Z,23.98
2022-12-31T18:43:46.098Z,24.30
2022-12-31T18:46:15.661Z,24.67
2022-12-31T18:48:42.941Z,28.42
2022-12-31T18:51:18.283Z,27.15
2022-12-31T18:53:45.863Z,28.35
2022-12-31T18:56:15.078Z,25.35
2022-12-31T18:58:46.139Z,25.33
2022-12-31T19:01:37.949Z,24.02
2022-12-31T19:04:13.644Z,32.70
2022-12-31T19:06:45.273Z,26.45
2022-12-31T19:09:30.650Z,27.45
2022-12-31T19:12:03.746Z,24.70
2022-12-31T19:14:37.022Z,23.55
2022-12-31T19:19:36.553Z,26.75
2022-12-31T19:22:06.916Z,27.33
2022-12-31T19:24:34.988Z,28.80
2022-12-31T19:27:03.167Z,23.17
2022-12-31T19:29:30.841Z,25.73
2022-12-31T19:32:01.001Z,21.45
2022-12-31T19:34:28.373Z,24.75
2022-12-31T19:36:58.432Z,24.88
2022-12-31T19:39:28.752Z,24.27
2022-12-31T19:42:00.294Z,26.42
2022-12-31T19:44:28.018Z,25.30
2022-12-31T19:46:55.259Z,25.38
2022-12-31T19:49:22.635Z,22.58
2022-12-31T19:51:51.905Z,22.27
2022-12-31T19:54:19.743Z,18.50
2022-12-31T19:56:46.851Z,22.13
2022-12-31T19:59:13.725Z,25.60
2022-12-31T20:01:41.207Z,23.23
2022-12-31T20:04:10.084Z,18.95
2022-12-31T20:06:40.110Z,23.75
2022-12-31T20:09:07.030Z,18.95
2022-12-31T20:11:34.101Z,27.48
2022-12-31T20:14:00.946Z,26.60
2022-12-31T20:16:29.827Z,24.70
2022-12-31T20:18:57.021Z,20.35
2022-12-31T20:21:27.727Z,20.65
2022-12-31T20:23:55.244Z,20.85
2022-12-31T20:26:23.698Z,15.82
2022-12-31T20:28:51.192Z,18.73
2022-12-31T20:31:24.829Z,24.55
2022-12-31T20:33:53.770Z,18.40
2022-12-31T20:36:20.942Z,18.92
2022-12-31T20:38:48.507Z,21.70
2022-12-31T20:41:21.006Z,17.33
2022-12-31T20:43:49.851Z,21.60
2022-12-31T20:46:20.474Z,21.33
2022-12-31T20:48:49.825Z,22.58
2022-12-31T20:51:18.424Z,25.10
2022-12-31T20:53:48.114Z,22.95
2022-12-31T20:56:16.106Z,22.23
2022-12-31T20:58:46.597Z,21.55
2022-12-31T21:01:17.220Z,20.75
2022-12-31T21:06:34.896Z,32.35
2022-12-31T21:09:04.318Z,31.45
2022-12-31T21:11:49.940Z,35.13
2022-12-31T21:14:17.023Z,35.85
2022-12-31T21:16:44.110Z,36.55
2022-12-31T21:19:11.122Z,36.55
2022-12-31T21:21:38.046Z,35.85
2022-12-31T21:24:05.253Z,41.63
2022-12-31T21:26:32.099Z,43.17
2022-12-31T21:28:59.172Z,43.97
2022-12-31T21:31:26.125Z,46.97
2022-12-31T21:33:55.596Z,47.45
2022-12-31T21:36:23.535Z,46.33
2022-12-31T21:38:51.505Z,50.67
2022-12-31T21:41:37.171Z,42.97
2022-12-31T21:44:07.088Z,40.40
2022-12-31T21:46:35.986Z,37.28
2022-12-31T21:49:03.718Z,39.03
2022-12-31T21:51:31.686Z,40.97
2022-12-31T21:54:02.269Z,35.10
2022-12-31T21:56:33.323Z,53.88
2022-12-31T21:59:19.440Z,46.58
2022-12-31T22:02:05.197Z,49.08
2022-12-31T22:05:01.468Z,43.03
2022-12-31T22:07:22.553Z,46.28
2022-12-31T22:09:49.355Z,46.08
2022-12-31T22:12:16.389Z,44.90
2022-12-31T22:15:15.064Z,68.38
2022-12-31T22:17:30.067Z,37.25
2022-12-31T22:22:43.744Z,31.90
2022-12-31T22:25:10.599Z,34.35
2022-12-31T22:27:37.466Z,38.35
2022-12-31T22:30:05.195Z,44.20
2022-12-31T22:32:32.181Z,49.80
2022-12-31T22:34:59.028Z,37.60
2022-12-31T22:37:55.522Z,32.47
2022-12-31T22:40:12.911Z,65.35
2022-12-31T22:42:39.810Z,41.33
2022-12-31T22:45:07.589Z,45.33
2022-12-31T22:47:34.601Z,47.80
2022-12-31T22:50:01.537Z,43.20
2022-12-31T22:52:28.449Z,42.85
2022-12-31T22:54:55.381Z,52.65
2022-12-31T22:57:22.259Z,54.38
2022-12-31T22:59:49.136Z,51.90
2022-12-31T23:02:16.617Z,53.88
2022-12-31T23:04:43.730Z,326.05
2022-12-31T23:07:10.640Z,443.10
2022-12-31T23:09:56.519Z,378.38
2022-12-31T23:12:23.360Z,261.10
2022-12-31T23:15:08.566Z,282.40
2022-12-31T23:17:54.013Z,248.52
2022-12-31T23:20:42.349Z,221.07
2022-12-31T23:23:14.605Z,236.55
2022-12-31T23:25:44.264Z,159.18
2022-12-31T23:28:23.691Z,187.02
2022-12-31T23:30:53.988Z,143.63
2022-12-31T23:33:23.926Z,136.60
2022-12-31T23:35:50.795Z,128.00
2022-12-31T23:38:18.852Z,134.27
2022-12-31T23:40:45.995Z,136.43
2022-12-31T23:43:21.386Z,135.50
2022-12-31T23:45:54.163Z,137.63
2022-12-31T23:48:21.301Z,106.72
2022-12-31T23:50:54.146Z,105.45
2022-12-31T23:53:23.488Z,80.45
2022-12-31T23:55:54.159Z,68.95
2022-12-31T23:58:22.584Z,64.28
